Huvudsida
METAR-TAF:

METAR-TAF

Flygplatser :

Molde flygplats. Årø

Molde, Norge

latitud: 62-45N, longitud: 007-16E, höjd: 0 m

Aktuellt väderrapport

Denna rapport gjordes för 24 minuter sedan, klockan 20:50 UTC
Vind 6 kt från väst
Temperatur 11°C
Fuktighet 87%
Tryck 1013 hPa
Sikt 10 km eller mer
lätta regnskurar,

METAR: ENML 202050Z AUTO 26006KT 9999NDV -SHRA BKN037/// OVC047/// 11/09 Q1013

Tid: 23:14 (21:14 UTC)

Väderprognos

Denna rapport gjordes för 7 timmar och 14 minuter sedan, klockan 14:00 UTC
Prognos gäller från 20 kl. 15 UTC till 20 kl. 23 UTC
Vind 25 kt från syd/sydväst
Sikt 10 km eller mer
Få moln på en höjd av 2000 ft
Brutna moln på en höjd av 3000 ft
Sannolikhet 40% :
Temporärt
från 20 kl. 15 UTC till 20 kl. 23 UTC
Brutna moln på en höjd av 1400 ft, Högtornande cumulus.
regnskurar
Blir
från 20 kl. 15 UTC till 20 kl. 17 UTC
Vind 15 kt från väst/sydväst

TAF: ENML 201400Z 2015/2023 21025KT 9999 FEW020 BKN030 PROB40 TEMPO 2015/2023 SHRA BKN014TCU BECMG 2015/2017 25015KT

Aktuella väderrapporter och prognoser från 4000 flygplatser (METAR- och TAF-rapporter).

De tillgängliga stationerna syns som gula och röda prickar på kartan.

För musen över prickarna för att se namnen på stationerna.

Klicka sedan för att få väderrapporter och prognoser.

För att ändra kartan: Klicka på de gröna knapparna med ett svart kors på för att zooma in; den gröna knappen med ett streck på för att zooma ut; eller på de gröna pilarna för angränsande kartor.


METAR-TAF: